sensor_id;sensor_type;location;lat;lon;timestamp;temperature;humidity
75091;DHT22;63674;48.048;8.306;2022-12-31T00:01:11;11.10;99.90
75091;DHT22;63674;48.048;8.306;2022-12-31T00:03:42;11.10;99.90
75091;DHT22;63674;48.048;8.306;2022-12-31T00:06:13;11.10;99.90
75091;DHT22;63674;48.048;8.306;2022-12-31T00:08:43;11.10;99.90
75091;DHT22;63674;48.048;8.306;2022-12-31T00:11:12;11.10;99.90
75091;DHT22;63674;48.048;8.306;2022-12-31T00:13:41;11.10;99.90
75091;DHT22;63674;48.048;8.306;2022-12-31T00:16:14;11.10;99.90
75091;DHT22;63674;48.048;8.306;2022-12-31T00:18:46;11.20;99.90
75091;DHT22;63674;48.048;8.306;2022-12-31T00:21:17;11.20;99.90
75091;DHT22;63674;48.048;8.306;2022-12-31T00:23:47;11.30;99.90
75091;DHT22;63674;48.048;8.306;2022-12-31T00:26:17;11.20;99.90
75091;DHT22;63674;48.048;8.306;2022-12-31T00:28:47;11.40;99.90
75091;DHT22;63674;48.048;8.306;2022-12-31T00:31:17;11.40;99.90
75091;DHT22;63674;48.048;8.306;2022-12-31T00:33:48;11.50;99.90
75091;DHT22;63674;48.048;8.306;2022-12-31T00:36:19;11.50;99.90
75091;DHT22;63674;48.048;8.306;2022-12-31T00:38:50;11.50;99.90
75091;DHT22;63674;48.048;8.306;2022-12-31T00:41:21;11.50;99.90
75091;DHT22;63674;48.048;8.306;2022-12-31T00:43:51;11.60;99.90
75091;DHT22;63674;48.048;8.306;2022-12-31T00:46:19;11.50;99.90
75091;DHT22;63674;48.048;8.306;2022-12-31T00:48:50;11.60;99.90
75091;DHT22;63674;48.048;8.306;2022-12-31T00:51:20;11.50;99.90
75091;DHT22;63674;48.048;8.306;2022-12-31T00:53:53;11.60;99.90
75091;DHT22;63674;48.048;8.306;2022-12-31T00:56:24;11.60;99.90
75091;DHT22;63674;48.048;8.306;2022-12-31T00:58:54;11.50;99.90
75091;DHT22;63674;48.048;8.306;2022-12-31T01:01:25;11.40;99.90
75091;DHT22;63674;48.048;8.306;2022-12-31T01:03:58;11.50;99.90
75091;DHT22;63674;48.048;8.306;2022-12-31T01:06:29;11.40;99.90
75091;DHT22;63674;48.048;8.306;2022-12-31T01:08:58;11.40;99.90
75091;DHT22;63674;48.048;8.306;2022-12-31T01:11:26;11.40;99.90
75091;DHT22;63674;48.048;8.306;2022-12-31T01:13:57;11.60;99.90
75091;DHT22;63674;48.048;8.306;2022-12-31T01:16:30;11.60;99.90
75091;DHT22;63674;48.048;8.306;2022-12-31T01:19:03;11.70;99.90
75091;DHT22;63674;48.048;8.306;2022-12-31T01:21:34;11.60;99.90
75091;DHT22;63674;48.048;8.306;2022-12-31T01:24:03;11.60;99.90
75091;DHT22;63674;48.048;8.306;2022-12-31T01:26:32;11.60;99.90
75091;DHT22;63674;48.048;8.306;2022-12-31T01:29:01;11.70;99.90
75091;DHT22;63674;48.048;8.306;2022-12-31T01:31:33;11.70;99.90
75091;DHT22;63674;48.048;8.306;2022-12-31T01:34:04;11.70;99.90
75091;DHT22;63674;48.048;8.306;2022-12-31T01:36:34;11.60;99.90
75091;DHT22;63674;48.048;8.306;2022-12-31T01:39:04;11.70;99.90
75091;DHT22;63674;48.048;8.306;2022-12-31T01:41:35;11.80;99.90
75091;DHT22;63674;48.048;8.306;2022-12-31T01:47:22;11.70;99.90
75091;DHT22;63674;48.048;8.306;2022-12-31T01:50:04;11.70;99.90
75091;DHT22;63674;48.048;8.306;2022-12-31T01:52:38;11.70;99.90
75091;DHT22;63674;48.048;8.306;2022-12-31T01:55:17;11.80;99.90
75091;DHT22;63674;48.048;8.306;2022-12-31T01:57:49;11.70;99.90
75091;DHT22;63674;48.048;8.306;2022-12-31T02:00:19;11.70;99.90
75091;DHT22;63674;48.048;8.306;2022-12-31T02:02:48;11.80;99.90
75091;DHT22;63674;48.048;8.306;2022-12-31T02:05:23;11.80;99.90
75091;DHT22;63674;48.048;8.306;2022-12-31T02:07:55;11.80;99.90
75091;DHT22;63674;48.048;8.306;2022-12-31T02:10:24;11.70;99.90
75091;DHT22;63674;48.048;8.306;2022-12-31T02:12:53;11.60;99.90
75091;DHT22;63674;48.048;8.306;2022-12-31T02:15:28;11.60;99.90
75091;DHT22;63674;48.048;8.306;2022-12-31T02:18:12;11.80;99.90
75091;DHT22;63674;48.048;8.306;2022-12-31T02:20:59;11.80;99.90
75091;DHT22;63674;48.048;8.306;2022-12-31T02:24:05;11.80;99.90
75091;DHT22;63674;48.048;8.306;2022-12-31T02:27:09;11.70;99.90
75091;DHT22;63674;48.048;8.306;2022-12-31T02:30:04;11.80;99.90
75091;DHT22;63674;48.048;8.306;2022-12-31T02:32:47;11.70;99.90
75091;DHT22;63674;48.048;8.306;2022-12-31T02:35:27;11.70;99.90
75091;DHT22;63674;48.048;8.306;2022-12-31T02:38:02;11.60;99.90
75091;DHT22;63674;48.048;8.306;2022-12-31T02:40:34;11.60;99.90
75091;DHT22;63674;48.048;8.306;2022-12-31T02:43:04;11.50;99.90
75091;DHT22;63674;48.048;8.306;2022-12-31T02:45:37;11.50;99.90
75091;DHT22;63674;48.048;8.306;2022-12-31T02:48:22;11.50;99.90
75091;DHT22;63674;48.048;8.306;2022-12-31T02:51:03;11.40;99.90
75091;DHT22;63674;48.048;8.306;2022-12-31T02:54:16;11.40;99.90
75091;DHT22;63674;48.048;8.306;2022-12-31T02:56:57;11.40;99.90
75091;DHT22;63674;48.048;8.306;2022-12-31T02:59:32;11.40;99.90
75091;DHT22;63674;48.048;8.306;2022-12-31T03:02:26;11.40;99.90
75091;DHT22;63674;48.048;8.306;2022-12-31T03:04:56;11.50;99.90
75091;DHT22;63674;48.048;8.306;2022-12-31T03:07:27;11.50;99.90
75091;DHT22;63674;48.048;8.306;2022-12-31T03:09:58;11.50;99.90
75091;DHT22;63674;48.048;8.306;2022-12-31T03:12:29;11.40;99.90
75091;DHT22;63674;48.048;8.306;2022-12-31T03:15:15;11.40;99.90
75091;DHT22;63674;48.048;8.306;2022-12-31T03:17:52;11.50;99.90
75091;DHT22;63674;48.048;8.306;2022-12-31T03:20:25;11.40;99.90
75091;DHT22;63674;48.048;8.306;2022-12-31T03:23:16;11.40;99.90
75091;DHT22;63674;48.048;8.306;2022-12-31T03:25:47;11.40;99.90
75091;DHT22;63674;48.048;8.306;2022-12-31T03:28:16;11.40;99.90
75091;DHT22;63674;48.048;8.306;2022-12-31T03:30:48;11.50;99.90
75091;DHT22;63674;48.048;8.306;2022-12-31T03:33:19;11.60;99.90
75091;DHT22;63674;48.048;8.306;2022-12-31T03:35:49;11.50;99.90
75091;DHT22;63674;48.048;8.306;2022-12-31T03:38:19;11.50;99.90
75091;DHT22;63674;48.048;8.306;2022-12-31T03:40:49;11.50;99.90
75091;DHT22;63674;48.048;8.306;2022-12-31T03:43:19;11.50;99.90
75091;DHT22;63674;48.048;8.306;2022-12-31T03:45:48;11.50;99.90
75091;DHT22;63674;48.048;8.306;2022-12-31T03:48:21;11.60;99.90
75091;DHT22;63674;48.048;8.306;2022-12-31T03:50:50;11.60;99.90
75091;DHT22;63674;48.048;8.306;2022-12-31T03:53:19;11.50;99.90
75091;DHT22;63674;48.048;8.306;2022-12-31T03:55:50;11.60;99.90
75091;DHT22;63674;48.048;8.306;2022-12-31T03:58:19;11.60;99.90
75091;DHT22;63674;48.048;8.306;2022-12-31T04:00:48;11.80;99.90
75091;DHT22;63674;48.048;8.306;2022-12-31T04:03:17;11.80;99.90
75091;DHT22;63674;48.048;8.306;2022-12-31T04:05:52;11.80;99.90
75091;DHT22;63674;48.048;8.306;2022-12-31T04:08:21;11.80;99.90
75091;DHT22;63674;48.048;8.306;2022-12-31T04:10:50;11.80;99.90
75091;DHT22;63674;48.048;8.306;2022-12-31T04:13:46;11.80;99.90
75091;DHT22;63674;48.048;8.306;2022-12-31T04:16:15;11.90;99.90
75091;DHT22;63674;48.048;8.306;2022-12-31T04:18:43;11.80;99.90
75091;DHT22;63674;48.048;8.306;2022-12-31T04:21:13;11.90;99.90
75091;DHT22;63674;48.048;8.306;2022-12-31T04:23:41;12.00;99.90
75091;DHT22;63674;48.048;8.306;2022-12-31T04:26:10;12.00;99.90
75091;DHT22;63674;48.048;8.306;2022-12-31T04:28:39;11.90;99.90
75091;DHT22;63674;48.048;8.306;2022-12-31T04:31:07;12.00;99.90
75091;DHT22;63674;48.048;8.306;2022-12-31T04:33:37;12.00;99.90
75091;DHT22;63674;48.048;8.306;2022-12-31T04:36:06;12.00;99.90
75091;DHT22;63674;48.048;8.306;2022-12-31T04:38:37;12.00;99.90
75091;DHT22;63674;48.048;8.306;2022-12-31T04:41:05;12.10;99.90
75091;DHT22;63674;48.048;8.306;2022-12-31T04:43:48;12.10;99.90
75091;DHT22;63674;48.048;8.306;2022-12-31T04:46:19;12.10;99.90
75091;DHT22;63674;48.048;8.306;2022-12-31T04:48:49;12.10;99.90
75091;DHT22;63674;48.048;8.306;2022-12-31T04:51:19;12.10;99.90
75091;DHT22;63674;48.048;8.306;2022-12-31T04:53:49;12.20;99.90
75091;DHT22;63674;48.048;8.306;2022-12-31T04:56:18;12.20;99.90
75091;DHT22;63674;48.048;8.306;2022-12-31T04:58:47;12.10;99.90
75091;DHT22;63674;48.048;8.306;2022-12-31T05:01:16;12.10;99.90
75091;DHT22;63674;48.048;8.306;2022-12-31T05:03:45;12.10;99.90
75091;DHT22;63674;48.048;8.306;2022-12-31T05:06:16;12.00;99.90
75091;DHT22;63674;48.048;8.306;2022-12-31T05:08:46;12.00;99.90
75091;DHT22;63674;48.048;8.306;2022-12-31T05:11:17;12.10;99.90
75091;DHT22;63674;48.048;8.306;2022-12-31T05:13:45;12.10;99.90
75091;DHT22;63674;48.048;8.306;2022-12-31T05:16:14;12.20;99.90
75091;DHT22;63674;48.048;8.306;2022-12-31T05:18:42;12.20;99.90
75091;DHT22;63674;48.048;8.306;2022-12-31T05:21:16;12.20;99.90
75091;DHT22;63674;48.048;8.306;2022-12-31T05:23:47;12.20;99.90
75091;DHT22;63674;48.048;8.306;2022-12-31T05:26:17;12.20;99.90
75091;DHT22;63674;48.048;8.306;2022-12-31T05:28:45;12.20;99.90
75091;DHT22;63674;48.048;8.306;2022-12-31T05:31:14;12.20;99.90
75091;DHT22;63674;48.048;8.306;2022-12-31T05:33:42;12.20;99.90
75091;DHT22;63674;48.048;8.306;2022-12-31T05:36:11;12.20;99.90
75091;DHT22;63674;48.048;8.306;2022-12-31T05:38:40;12.10;99.90
75091;DHT22;63674;48.048;8.306;2022-12-31T05:41:10;12.10;99.90
75091;DHT22;63674;48.048;8.306;2022-12-31T05:43:39;12.20;99.90
75091;DHT22;63674;48.048;8.306;2022-12-31T05:46:08;12.30;99.90
75091;DHT22;63674;48.048;8.306;2022-12-31T05:48:36;12.30;99.90
75091;DHT22;63674;48.048;8.306;2022-12-31T05:51:05;12.40;99.90
75091;DHT22;63674;48.048;8.306;2022-12-31T05:53:33;12.40;99.90
75091;DHT22;63674;48.048;8.306;2022-12-31T05:56:02;12.30;99.90
75091;DHT22;63674;48.048;8.306;2022-12-31T05:58:32;12.30;99.90
75091;DHT22;63674;48.048;8.306;2022-12-31T06:01:01;12.20;99.90
75091;DHT22;63674;48.048;8.306;2022-12-31T06:03:29;12.20;99.90
75091;DHT22;63674;48.048;8.306;2022-12-31T06:06:00;12.30;99.90
75091;DHT22;63674;48.048;8.306;2022-12-31T06:08:28;12.20;99.90
75091;DHT22;63674;48.048;8.306;2022-12-31T06:10:57;12.30;99.90
75091;DHT22;63674;48.048;8.306;2022-12-31T06:13:25;12.30;99.90
75091;DHT22;63674;48.048;8.306;2022-12-31T06:15:55;12.40;99.90
75091;DHT22;63674;48.048;8.306;2022-12-31T06:18:24;12.30;99.90
75091;DHT22;63674;48.048;8.306;2022-12-31T06:20:53;12.30;99.90
75091;DHT22;63674;48.048;8.306;2022-12-31T06:23:21;12.20;99.90
75091;DHT22;63674;48.048;8.306;2022-12-31T06:25:50;12.20;99.90
75091;DHT22;63674;48.048;8.306;2022-12-31T06:28:18;12.20;99.90
75091;DHT22;63674;48.048;8.306;2022-12-31T06:30:47;12.50;99.90
75091;DHT22;63674;48.048;8.306;2022-12-31T06:33:17;12.50;99.90
75091;DHT22;63674;48.048;8.306;2022-12-31T06:35:46;12.40;99.90
75091;DHT22;63674;48.048;8.306;2022-12-31T06:38:14;12.40;99.90
75091;DHT22;63674;48.048;8.306;2022-12-31T06:40:43;12.50;99.90
75091;DHT22;63674;48.048;8.306;2022-12-31T06:43:11;12.40;99.90
75091;DHT22;63674;48.048;8.306;2022-12-31T06:45:40;12.40;99.90
75091;DHT22;63674;48.048;8.306;2022-12-31T06:48:09;12.40;99.90
75091;DHT22;63674;48.048;8.306;2022-12-31T06:50:39;12.40;99.90
75091;DHT22;63674;48.048;8.306;2022-12-31T06:53:07;12.20;99.90
75091;DHT22;63674;48.048;8.306;2022-12-31T06:55:36;12.20;99.90
75091;DHT22;63674;48.048;8.306;2022-12-31T06:58:08;12.10;99.90
75091;DHT22;63674;48.048;8.306;2022-12-31T07:00:40;12.20;99.90
75091;DHT22;63674;48.048;8.306;2022-12-31T07:03:24;12.10;99.90
75091;DHT22;63674;48.048;8.306;2022-12-31T07:06:03;12.30;99.90
75091;DHT22;63674;48.048;8.306;2022-12-31T07:08:44;12.20;99.90
75091;DHT22;63674;48.048;8.306;2022-12-31T07:11:19;12.30;99.90
75091;DHT22;63674;48.048;8.306;2022-12-31T07:13:58;12.30;99.90
75091;DHT22;63674;48.048;8.306;2022-12-31T07:16:42;12.30;99.90
75091;DHT22;63674;48.048;8.306;2022-12-31T07:19:26;12.30;99.90
75091;DHT22;63674;48.048;8.306;2022-12-31T07:22:02;12.30;99.90
75091;DHT22;63674;48.048;8.306;2022-12-31T07:24:31;12.30;99.90
75091;DHT22;63674;48.048;8.306;2022-12-31T07:27:07;12.30;99.90
75091;DHT22;63674;48.048;8.306;2022-12-31T07:29:55;12.30;99.90
75091;DHT22;63674;48.048;8.306;2022-12-31T07:32:46;12.30;99.90
75091;DHT22;63674;48.048;8.306;2022-12-31T07:35:39;12.40;99.90
75091;DHT22;63674;48.048;8.306;2022-12-31T07:38:18;12.40;99.90
75091;DHT22;63674;48.048;8.306;2022-12-31T07:40:59;12.40;99.90
75091;DHT22;63674;48.048;8.306;2022-12-31T07:43:46;12.50;99.90
75091;DHT22;63674;48.048;8.306;2022-12-31T07:46:32;12.60;99.90
75091;DHT22;63674;48.048;8.306;2022-12-31T07:49:09;12.70;99.90
75091;DHT22;63674;48.048;8.306;2022-12-31T07:51:39;12.70;99.90
75091;DHT22;63674;48.048;8.306;2022-12-31T07:54:12;12.70;99.90
75091;DHT22;63674;48.048;8.306;2022-12-31T07:56:41;12.60;99.90
75091;DHT22;63674;48.048;8.306;2022-12-31T07:59:20;12.60;99.90
75091;DHT22;63674;48.048;8.306;2022-12-31T08:01:59;12.50;99.90
75091;DHT22;63674;48.048;8.306;2022-12-31T08:04:38;12.50;99.90
75091;DHT22;63674;48.048;8.306;2022-12-31T08:07:15;12.50;99.90
75091;DHT22;63674;48.048;8.306;2022-12-31T08:09:55;12.50;99.90
75091;DHT22;63674;48.048;8.306;2022-12-31T08:12:31;12.60;99.90
75091;DHT22;63674;48.048;8.306;2022-12-31T08:15:05;12.80;99.90
75091;DHT22;63674;48.048;8.306;2022-12-31T08:17:40;12.70;99.90
75091;DHT22;63674;48.048;8.306;2022-12-31T08:20:12;12.80;99.90
75091;DHT22;63674;48.048;8.306;2022-12-31T08:23:00;12.80;99.90
75091;DHT22;63674;48.048;8.306;2022-12-31T08:25:59;12.80;99.90
75091;DHT22;63674;48.048;8.306;2022-12-31T08:28:51;12.70;99.90
75091;DHT22;63674;48.048;8.306;2022-12-31T08:31:26;12.90;99.90
75091;DHT22;63674;48.048;8.306;2022-12-31T08:34:06;12.90;99.90
75091;DHT22;63674;48.048;8.306;2022-12-31T08:36:47;13.00;99.90
75091;DHT22;63674;48.048;8.306;2022-12-31T08:39:29;13.10;99.90
75091;DHT22;63674;48.048;8.306;2022-12-31T08:42:13;13.10;99.90
75091;DHT22;63674;48.048;8.306;2022-12-31T08:44:51;13.00;99.90
75091;DHT22;63674;48.048;8.306;2022-12-31T08:47:30;13.10;99.90
75091;DHT22;63674;48.048;8.306;2022-12-31T08:50:05;13.00;99.90
75091;DHT22;63674;48.048;8.306;2022-12-31T08:52:40;13.00;99.90
75091;DHT22;63674;48.048;8.306;2022-12-31T08:55:13;13.00;99.90
75091;DHT22;63674;48.048;8.306;2022-12-31T08:57:51;13.00;99.90
75091;DHT22;63674;48.048;8.306;2022-12-31T09:00:29;13.00;99.90
75091;DHT22;63674;48.048;8.306;2022-12-31T09:03:24;13.10;99.90
75091;DHT22;63674;48.048;8.306;2022-12-31T09:06:05;13.00;99.90
75091;DHT22;63674;48.048;8.306;2022-12-31T09:08:43;13.10;99.90
75091;DHT22;63674;48.048;8.306;2022-12-31T09:11:19;13.10;99.90
75091;DHT22;63674;48.048;8.306;2022-12-31T09:14:06;13.30;99.90
75091;DHT22;63674;48.048;8.306;2022-12-31T09:16:50;13.20;99.90
75091;DHT22;63674;48.048;8.306;2022-12-31T09:19:23;13.30;99.90
75091;DHT22;63674;48.048;8.306;2022-12-31T09:21:52;13.20;99.90
75091;DHT22;63674;48.048;8.306;2022-12-31T09:24:22;13.20;99.90
75091;DHT22;63674;48.048;8.306;2022-12-31T09:26:59;13.30;99.90
75091;DHT22;63674;48.048;8.306;2022-12-31T09:29:45;13.30;99.90
75091;DHT22;63674;48.048;8.306;2022-12-31T09:32:25;13.30;99.90
75091;DHT22;63674;48.048;8.306;2022-12-31T09:35:03;13.40;99.90
75091;DHT22;63674;48.048;8.306;2022-12-31T09:37:45;13.20;99.90
75091;DHT22;63674;48.048;8.306;2022-12-31T09:40:41;13.20;99.90
75091;DHT22;63674;48.048;8.306;2022-12-31T09:47:23;13.30;99.90
75091;DHT22;63674;48.048;8.306;2022-12-31T09:50:42;13.30;99.90
75091;DHT22;63674;48.048;8.306;2022-12-31T09:53:38;13.30;99.90
75091;DHT22;63674;48.048;8.306;2022-12-31T09:56:14;13.50;99.90
75091;DHT22;63674;48.048;8.306;2022-12-31T09:58:54;13.50;99.90
75091;DHT22;63674;48.048;8.306;2022-12-31T10:01:34;13.50;99.90
75091;DHT22;63674;48.048;8.306;2022-12-31T10:04:32;13.30;99.90
75091;DHT22;63674;48.048;8.306;2022-12-31T10:07:28;13.30;99.90
75091;DHT22;63674;48.048;8.306;2022-12-31T10:10:08;13.50;99.90
75091;DHT22;63674;48.048;8.306;2022-12-31T10:13:07;13.50;99.90
75091;DHT22;63674;48.048;8.306;2022-12-31T10:16:08;13.40;99.90
75091;DHT22;63674;48.048;8.306;2022-12-31T10:19:12;13.40;99.90
75091;DHT22;63674;48.048;8.306;2022-12-31T10:22:04;13.60;99.90
75091;DHT22;63674;48.048;8.306;2022-12-31T10:24:49;13.60;99.90
75091;DHT22;63674;48.048;8.306;2022-12-31T10:27:36;13.70;99.90
75091;DHT22;63674;48.048;8.306;2022-12-31T10:30:17;13.80;99.90
75091;DHT22;63674;48.048;8.306;2022-12-31T10:32:57;13.80;99.90
75091;DHT22;63674;48.048;8.306;2022-12-31T10:35:38;13.90;99.90
75091;DHT22;63674;48.048;8.306;2022-12-31T10:38:25;14.00;99.90
75091;DHT22;63674;48.048;8.306;2022-12-31T10:41:35;14.10;99.90
75091;DHT22;63674;48.048;8.306;2022-12-31T10:48:05;14.10;99.90
75091;DHT22;63674;48.048;8.306;2022-12-31T10:58:17;14.20;99.90
75091;DHT22;63674;48.048;8.306;2022-12-31T11:01:07;14.20;99.90
75091;DHT22;63674;48.048;8.306;2022-12-31T11:07:37;14.20;99.90
75091;DHT22;63674;48.048;8.306;2022-12-31T11:13:57;14.30;99.90
75091;DHT22;63674;48.048;8.306;2022-12-31T11:16:47;14.60;99.90
75091;DHT22;63674;48.048;8.306;2022-12-31T11:19:32;14.50;99.90
75091;DHT22;63674;48.048;8.306;2022-12-31T11:22:28;14.70;99.90
75091;DHT22;63674;48.048;8.306;2022-12-31T11:25:17;14.90;99.90
75091;DHT22;63674;48.048;8.306;2022-12-31T11:28:02;14.90;99.90
75091;DHT22;63674;48.048;8.306;2022-12-31T11:30:45;14.80;99.90
75091;DHT22;63674;48.048;8.306;2022-12-31T11:33:38;14.80;99.90
75091;DHT22;63674;48.048;8.306;2022-12-31T11:36:25;15.00;99.50
75091;DHT22;63674;48.048;8.306;2022-12-31T11:39:25;15.00;97.90
75091;DHT22;63674;48.048;8.306;2022-12-31T11:42:09;15.20;99.90
75091;DHT22;63674;48.048;8.306;2022-12-31T11:44:48;15.20;99.90
75091;DHT22;63674;48.048;8.306;2022-12-31T11:47:50;15.30;95.60
75091;DHT22;63674;48.048;8.306;2022-12-31T11:50:49;15.30;95.80
75091;DHT22;63674;48.048;8.306;2022-12-31T11:53:33;15.40;94.00
75091;DHT22;63674;48.048;8.306;2022-12-31T11:56:15;15.40;92.30
75091;DHT22;63674;48.048;8.306;2022-12-31T11:58:47;15.40;97.60
75091;DHT22;63674;48.048;8.306;2022-12-31T12:01:20;15.50;93.50
75091;DHT22;63674;48.048;8.306;2022-12-31T12:03:50;15.50;94.80
75091;DHT22;63674;48.048;8.306;2022-12-31T12:06:24;15.50;92.20
75091;DHT22;63674;48.048;8.306;2022-12-31T12:08:58;15.40;96.10
75091;DHT22;63674;48.048;8.306;2022-12-31T12:11:31;15.30;99.00
75091;DHT22;63674;48.048;8.306;2022-12-31T12:14:17;15.20;99.30
75091;DHT22;63674;48.048;8.306;2022-12-31T12:16:52;15.30;96.00
75091;DHT22;63674;48.048;8.306;2022-12-31T12:19:32;15.20;96.40
75091;DHT22;63674;48.048;8.306;2022-12-31T12:22:10;15.30;92.90
75091;DHT22;63674;48.048;8.306;2022-12-31T12:24:39;15.20;96.00
75091;DHT22;63674;48.048;8.306;2022-12-31T12:27:22;15.20;96.80
75091;DHT22;63674;48.048;8.306;2022-12-31T12:29:54;15.30;95.50
75091;DHT22;63674;48.048;8.306;2022-12-31T12:32:25;15.30;95.30
75091;DHT22;63674;48.048;8.306;2022-12-31T12:34:54;15.30;98.30
75091;DHT22;63674;48.048;8.306;2022-12-31T12:37:27;15.40;94.40
75091;DHT22;63674;48.048;8.306;2022-12-31T12:39:59;15.40;96.20
75091;DHT22;63674;48.048;8.306;2022-12-31T12:42:31;15.40;99.00
75091;DHT22;63674;48.048;8.306;2022-12-31T12:45:02;15.40;93.80
75091;DHT22;63674;48.048;8.306;2022-12-31T12:47:32;15.40;93.80
75091;DHT22;63674;48.048;8.306;2022-12-31T12:50:02;15.40;94.00
75091;DHT22;63674;48.048;8.306;2022-12-31T12:52:51;15.30;99.90
75091;DHT22;63674;48.048;8.306;2022-12-31T12:55:33;15.30;95.80
75091;DHT22;63674;48.048;8.306;2022-12-31T12:58:13;15.30;99.90
75091;DHT22;63674;48.048;8.306;2022-12-31T13:00:54;15.30;97.90
75091;DHT22;63674;48.048;8.306;2022-12-31T13:03:52;15.20;98.50
75091;DHT22;63674;48.048;8.306;2022-12-31T13:07:15;15.30;96.50
75091;DHT22;63674;48.048;8.306;2022-12-31T13:10:02;15.30;94.50
75091;DHT22;63674;48.048;8.306;2022-12-31T13:12:44;15.30;94.70
75091;DHT22;63674;48.048;8.306;2022-12-31T13:15:39;15.20;96.40
75091;DHT22;63674;48.048;8.306;2022-12-31T13:18:27;15.20;99.90
75091;DHT22;63674;48.048;8.306;2022-12-31T13:21:18;15.20;98.40
75091;DHT22;63674;48.048;8.306;2022-12-31T13:23:57;15.30;94.40
75091;DHT22;63674;48.048;8.306;2022-12-31T13:26:32;15.40;94.30
75091;DHT22;63674;48.048;8.306;2022-12-31T13:29:07;15.30;96.60
75091;DHT22;63674;48.048;8.306;2022-12-31T13:31:43;15.30;90.00
75091;DHT22;63674;48.048;8.306;2022-12-31T13:34:16;15.40;89.40
75091;DHT22;63674;48.048;8.306;2022-12-31T13:36:47;15.40;94.60
75091;DHT22;63674;48.048;8.306;2022-12-31T13:39:19;15.40;90.70
75091;DHT22;63674;48.048;8.306;2022-12-31T13:41:56;15.30;94.70
75091;DHT22;63674;48.048;8.306;2022-12-31T13:44:31;15.30;90.00
75091;DHT22;63674;48.048;8.306;2022-12-31T13:47:09;15.30;92.00
75091;DHT22;63674;48.048;8.306;2022-12-31T13:49:43;15.40;89.40
75091;DHT22;63674;48.048;8.306;2022-12-31T13:52:23;15.50;88.30
75091;DHT22;63674;48.048;8.306;2022-12-31T13:54:58;15.50;83.10
75091;DHT22;63674;48.048;8.306;2022-12-31T13:57:38;15.50;81.70
75091;DHT22;63674;48.048;8.306;2022-12-31T14:00:18;15.50;88.70
75091;DHT22;63674;48.048;8.306;2022-12-31T14:02:59;15.40;91.80
75091;DHT22;63674;48.048;8.306;2022-12-31T14:05:32;15.40;87.10
75091;DHT22;63674;48.048;8.306;2022-12-31T14:08:04;15.40;91.50
75091;DHT22;63674;48.048;8.306;2022-12-31T14:10:40;15.30;89.80
75091;DHT22;63674;48.048;8.306;2022-12-31T14:13:27;15.30;90.20
75091;DHT22;63674;48.048;8.306;2022-12-31T14:16:10;15.40;79.70
75091;DHT22;63674;48.048;8.306;2022-12-31T14:18:52;15.40;81.60
75091;DHT22;63674;48.048;8.306;2022-12-31T14:21:28;15.40;82.80
75091;DHT22;63674;48.048;8.306;2022-12-31T14:24:08;15.30;83.20
75091;DHT22;63674;48.048;8.306;2022-12-31T14:26:43;15.20;93.70
75091;DHT22;63674;48.048;8.306;2022-12-31T14:29:25;15.00;93.80
75091;DHT22;63674;48.048;8.306;2022-12-31T14:32:12;14.80;99.90
75091;DHT22;63674;48.048;8.306;2022-12-31T14:35:13;14.50;99.90
75091;DHT22;63674;48.048;8.306;2022-12-31T14:37:58;14.30;99.90
75091;DHT22;63674;48.048;8.306;2022-12-31T14:40:42;14.10;99.90
75091;DHT22;63674;48.048;8.306;2022-12-31T14:43:23;14.10;99.90
75091;DHT22;63674;48.048;8.306;2022-12-31T14:46:07;13.70;99.90
75091;DHT22;63674;48.048;8.306;2022-12-31T14:48:47;13.60;99.90
75091;DHT22;63674;48.048;8.306;2022-12-31T14:51:27;13.40;99.90
75091;DHT22;63674;48.048;8.306;2022-12-31T14:53:57;13.00;99.90
75091;DHT22;63674;48.048;8.306;2022-12-31T14:56:31;13.00;99.90
75091;DHT22;63674;48.048;8.306;2022-12-31T14:59:23;13.10;99.90
75091;DHT22;63674;48.048;8.306;2022-12-31T15:01:53;13.10;99.90
75091;DHT22;63674;48.048;8.306;2022-12-31T15:04:33;13.10;99.90
75091;DHT22;63674;48.048;8.306;2022-12-31T15:07:17;12.80;99.90
75091;DHT22;63674;48.048;8.306;2022-12-31T15:10:06;12.60;99.90
75091;DHT22;63674;48.048;8.306;2022-12-31T15:12:54;12.50;99.90
75091;DHT22;63674;48.048;8.306;2022-12-31T15:16:03;12.20;99.90
75091;DHT22;63674;48.048;8.306;2022-12-31T15:18:52;12.10;99.90
75091;DHT22;63674;48.048;8.306;2022-12-31T15:21:47;12.10;99.90
75091;DHT22;63674;48.048;8.306;2022-12-31T15:24:26;11.90;99.90
75091;DHT22;63674;48.048;8.306;2022-12-31T15:26:58;11.80;99.90
75091;DHT22;63674;48.048;8.306;2022-12-31T15:29:30;11.80;99.90
75091;DHT22;63674;48.048;8.306;2022-12-31T15:32:02;11.70;99.90
75091;DHT22;63674;48.048;8.306;2022-12-31T15:34:34;11.60;99.90
75091;DHT22;63674;48.048;8.306;2022-12-31T15:40:15;11.40;99.90
75091;DHT22;63674;48.048;8.306;2022-12-31T15:42:47;11.30;99.90
75091;DHT22;63674;48.048;8.306;2022-12-31T15:45:22;11.20;99.90
75091;DHT22;63674;48.048;8.306;2022-12-31T15:47:55;11.10;99.90
75091;DHT22;63674;48.048;8.306;2022-12-31T15:50:26;11.00;99.90
75091;DHT22;63674;48.048;8.306;2022-12-31T15:52:55;10.90;99.90
75091;DHT22;63674;48.048;8.306;2022-12-31T15:55:29;10.90;99.90
75091;DHT22;63674;48.048;8.306;2022-12-31T15:58:03;10.90;99.90
75091;DHT22;63674;48.048;8.306;2022-12-31T16:00:45;10.80;99.90
75091;DHT22;63674;48.048;8.306;2022-12-31T16:03:24;10.80;99.90
75091;DHT22;63674;48.048;8.306;2022-12-31T16:05:58;10.70;99.90
75091;DHT22;63674;48.048;8.306;2022-12-31T16:08:30;10.70;99.90
75091;DHT22;63674;48.048;8.306;2022-12-31T16:11:02;10.60;99.90
75091;DHT22;63674;48.048;8.306;2022-12-31T16:13:34;10.60;99.90
75091;DHT22;63674;48.048;8.306;2022-12-31T16:16:07;10.50;99.90
75091;DHT22;63674;48.048;8.306;2022-12-31T16:18:47;10.50;99.90
75091;DHT22;63674;48.048;8.306;2022-12-31T16:21:29;10.50;99.90
75091;DHT22;63674;48.048;8.306;2022-12-31T16:24:00;10.50;99.90
75091;DHT22;63674;48.048;8.306;2022-12-31T16:26:38;10.50;99.90
75091;DHT22;63674;48.048;8.306;2022-12-31T16:29:13;10.40;99.90
75091;DHT22;63674;48.048;8.306;2022-12-31T16:31:43;10.40;99.90
75091;DHT22;63674;48.048;8.306;2022-12-31T16:34:15;10.40;99.90
75091;DHT22;63674;48.048;8.306;2022-12-31T16:36:54;10.40;99.90
75091;DHT22;63674;48.048;8.306;2022-12-31T16:39:27;10.30;99.90
75091;DHT22;63674;48.048;8.306;2022-12-31T16:42:16;10.20;99.90
75091;DHT22;63674;48.048;8.306;2022-12-31T16:44:46;10.10;99.90
75091;DHT22;63674;48.048;8.306;2022-12-31T16:47:18;10.10;99.90
75091;DHT22;63674;48.048;8.306;2022-12-31T16:49:54;10.10;99.90
75091;DHT22;63674;48.048;8.306;2022-12-31T16:52:31;10.10;99.90
75091;DHT22;63674;48.048;8.306;2022-12-31T16:55:06;10.00;99.90
75091;DHT22;63674;48.048;8.306;2022-12-31T16:57:37;10.00;99.90
75091;DHT22;63674;48.048;8.306;2022-12-31T17:00:13;10.00;99.90